Time;durP1;ratioP1;P1;durP2;ratioP2;P2;SDS_P1;SDS_P2;PMS_P1;PMS_P2;Temp;Humidity;BMP_temperature;BMP_pressure;BME280_temperature;BME280_humidity;BME280_pressure;Samples;Min_cycle;Max_cycle;Signal;HPM_P1;HPM_P2
2021/03/28 00:02:12;;;;;;;10.32;5.60;;;;;;;4.92;59.07;98565.34;1696197;84;21172;-65
2021/03/28 00:05:08;;;;;;;10.32;5.10;;;;;;;4.90;58.89;98564.17;1696177;84;21288;-65
2021/03/28 00:08:06;;;;;;;11.97;5.45;;;;;;;4.88;58.23;98558.27;1795076;80;21139;-64
2021/03/28 00:13:29;;;;;;;16.65;5.30;;;;;;;4.83;59.50;98562.86;1648873;86;21197;-69
2021/03/28 00:16:02;;;;;;;8.55;4.05;;;;;;;4.83;59.26;98560.75;1649529;86;21197;-65
2021/03/28 00:18:59;;;;;;;9.60;4.78;;;;;;;4.84;58.12;98560.67;1646019;86;21605;-65
2021/03/28 00:21:51;;;;;;;8.70;3.58;;;;;;;4.87;58.97;98565.63;1819755;79;22706;-65
2021/03/28 00:24:38;;;;;;;10.93;5.53;;;;;;;4.81;59.17;98565.17;1793082;80;21270;-64
2021/03/28 00:27:16;;;;;;;9.38;4.67;;;;;;;4.75;59.32;98560.75;1793197;80;21635;-64
2021/03/28 00:30:28;;;;;;;10.03;5.55;;;;;;;4.74;59.33;98560.41;1792406;80;21139;-63
2021/03/28 00:33:04;;;;;;;18.35;6.72;;;;;;;4.70;59.76;98564.54;1680128;84;21591;-64
2021/03/28 00:36:02;;;;;;;10.38;5.78;;;;;;;4.66;58.49;98559.20;1672051;84;21611;-64
2021/03/28 00:38:41;;;;;;;16.85;8.65;;;;;;;4.63;58.31;98568.40;1701531;84;21163;-64
2021/03/28 00:41:23;;;;;;;14.33;7.67;;;;;;;4.52;60.46;98560.47;1701328;84;21150;-64
2021/03/28 00:44:16;;;;;;;16.30;7.67;;;;;;;4.49;60.47;98559.36;1701322;84;21163;-65
2021/03/28 00:46:56;;;;;;;13.08;5.95;;;;;;;4.44;60.89;98563.48;1692261;83;21191;-64
2021/03/28 00:49:35;;;;;;;8.95;5.28;;;;;;;4.45;61.07;98556.16;1691823;84;21333;-66
2021/03/28 00:52:11;;;;;;;11.45;5.42;;;;;;;4.46;60.11;98562.13;1691952;83;21730;-65
2021/03/28 00:54:54;;;;;;;18.32;7.75;;;;;;;4.47;61.08;98565.91;1672349;84;21213;-65
2021/03/28 00:57:47;;;;;;;13.75;7.87;;;;;;;4.47;61.06;98554.79;1691632;84;21196;-65
2021/03/28 01:01:00;;;;;;;15.25;8.08;;;;;;;4.45;61.09;98561.75;1645997;87;21926;-64
2021/03/28 01:04:07;;;;;;;18.80;8.28;;;;;;;4.40;61.52;98559.44;1705063;82;21208;-64
2021/03/28 01:06:58;;;;;;;15.58;7.80;;;;;;;4.37;61.18;98562.20;1704597;83;21630;-65
2021/03/28 01:10:22;;;;;;;18.27;8.03;;;;;;;4.35;61.42;98556.33;1619773;87;21188;-64
2021/03/28 01:13:44;;;;;;;15.60;8.58;;;;;;;4.38;60.41;98563.86;1640040;87;21201;-64
2021/03/28 01:16:33;;;;;;;20.40;8.70;;;;;;;4.40;60.35;98556.87;1666714;86;21188;-64
2021/03/28 01:22:32;;;;;;;20.23;9.30;;;;;;;4.30;61.72;98556.59;1638281;86;21212;-63
2021/03/28 01:25:24;;;;;;;19.17;7.78;;;;;;;4.21;61.88;98555.83;1655049;85;21603;-63
2021/03/28 01:27:57;;;;;;;14.35;7.40;;;;;;;4.21;61.24;98552.43;1665995;85;21186;-64
2021/03/28 01:30:39;;;;;;;15.18;8.15;;;;;;;4.20;61.28;98550.80;1659979;85;21208;-64
2021/03/28 01:33:13;;;;;;;14.18;8.05;;;;;;;4.17;61.18;98550.95;1655315;85;21231;-65
2021/03/28 01:39:08;;;;;;;13.20;7.60;;;;;;;4.15;60.20;98563.91;1734689;80;21207;-65
2021/03/28 01:41:44;;;;;;;15.63;8.70;;;;;;;4.08;61.30;98551.05;1711373;83;21251;-64
2021/03/28 01:44:39;;;;;;;15.85;8.38;;;;;;;3.88;63.49;98555.20;1709990;83;21176;-64
2021/03/28 01:47:34;;;;;;;14.55;8.85;;;;;;;3.89;63.57;98555.55;1689463;83;21156;-65
2021/03/28 01:50:23;;;;;;;16.40;9.60;;;;;;;3.90;61.36;98561.07;1682963;84;21539;-64
2021/03/28 01:53:25;;;;;;;15.10;7.65;;;;;;;3.87;62.43;98562.53;1722121;83;21624;-65
2021/03/28 01:56:14;;;;;;;15.50;8.28;;;;;;;3.82;62.95;98562.79;1683380;85;21518;-65
2021/03/28 02:02:32;;;;;;;17.52;7.65;;;;;;;3.68;63.59;98552.92;1712668;83;21203;-65
2021/03/28 02:08:56;;;;;;;15.83;5.75;;;;;;;3.58;61.80;98554.36;1660591;85;21179;-65
2021/03/28 02:11:44;;;;;;;15.88;7.15;;;;;;;3.55;62.18;98563.49;1735919;81;21171;-65
2021/03/28 02:15:04;;;;;;;10.95;6.53;;;;;;;3.53;61.25;98560.20;1716994;83;21137;-64
2021/03/28 02:17:52;;;;;;;18.07;8.65;;;;;;;3.54;61.39;98561.37;1688748;84;21179;-64
2021/03/28 02:20:39;;;;;;;16.42;8.28;;;;;;;3.51;63.08;98565.41;1686742;84;21136;-64
2021/03/28 02:29:27;;;;;;;15.78;7.62;;;;;;;3.43;63.80;98564.16;1723921;82;21191;-63
2021/03/28 02:32:36;;;;;;;20.35;8.98;;;;;;;3.39;63.78;98569.09;1728329;82;21218;-64
2021/03/28 02:35:38;;;;;;;15.90;6.97;;;;;;;3.37;64.96;98567.08;1729165;83;21194;-64
2021/03/28 02:39:02;;;;;;;14.60;7.60;;;;;;;3.40;65.20;98566.45;1728833;83;21186;-64
2021/03/28 02:42:12;;;;;;;12.98;5.70;;;;;;;3.47;65.32;98564.37;1741389;81;21152;-62
2021/03/28 02:45:10;;;;;;;19.60;7.90;;;;;;;3.51;64.09;98558.98;1740957;81;22135;-63
2021/03/28 02:47:55;;;;;;;17.98;9.28;;;;;;;3.55;63.76;98559.64;1727410;82;21186;-64
2021/03/28 02:51:10;;;;;;;15.60;7.70;;;;;;;3.56;63.50;98549.75;1725444;83;21131;-62
2021/03/28 02:54:26;;;;;;;19.42;8.90;;;;;;;3.53;64.43;98551.20;1741349;81;21128;-63
2021/03/28 02:57:50;;;;;;;12.80;8.28;;;;;;;3.47;63.61;98554.09;1741634;81;21646;-63
2021/03/28 03:00:46;;;;;;;13.43;8.23;;;;;;;3.40;64.62;98552.78;1741417;81;21583;-63
2021/03/28 03:03:28;;;;;;;22.35;9.78;;;;;;;3.34;64.11;98551.40;1741417;81;21223;-64
2021/03/28 03:06:34;;;;;;;15.18;8.28;;;;;;;3.28;63.57;98552.99;1741464;82;21203;-65
2021/03/28 03:09:35;;;;;;;17.20;8.55;;;;;;;3.24;63.73;98550.22;1741582;81;21568;-63
2021/03/28 03:12:45;;;;;;;15.25;6.95;;;;;;;3.19;65.56;98549.18;1728806;83;21556;-63
2021/03/28 03:15:21;;;;;;;13.08;7.33;;;;;;;3.12;66.97;98549.59;1651790;87;21189;-64
2021/03/28 03:18:20;;;;;;;;;;;;;;;3.07;67.44;98543.91;1639649;88;21183;-64
2021/03/28 03:21:26;;;;;;;21.27;11.38;;;;;;;3.08;65.58;98550.22;1804039;79;27955;-65
2021/03/28 03:24:30;;;;;;;17.40;8.05;;;;;;;3.12;65.69;98552.98;1792684;80;21150;-64
2021/03/28 03:27:29;;;;;;;15.72;7.58;;;;;;;3.03;65.18;98548.38;1792931;80;21257;-64
2021/03/28 03:30:48;;;;;;;16.73;8.83;;;;;;;2.99;65.47;98544.77;1791022;80;21309;-64
2021/03/28 03:33:45;;;;;;;18.00;8.10;;;;;;;2.96;67.11;98548.78;1591384;90;21153;-64
2021/03/28 03:40:05;;;;;;;19.20;8.13;;;;;;;2.90;64.96;98547.80;1667697;86;21156;-64
2021/03/28 03:43:11;;;;;;;19.20;7.95;;;;;;;2.93;64.41;98556.61;1670631;85;21183;-63
2021/03/28 03:45:50;;;;;;;11.95;7.60;;;;;;;2.95;65.70;98558.66;1669074;86;21156;-64
2021/03/28 03:49:00;;;;;;;14.78;7.83;;;;;;;2.92;65.69;98551.13;1698385;84;21195;-65
2021/03/28 03:51:39;;;;;;;15.32;7.92;;;;;;;2.94;65.79;98551.41;1698633;84;21160;-64
2021/03/28 04:00:40;;;;;;;16.55;7.50;;;;;;;3.05;65.16;98551.67;1689260;84;21137;-64
2021/03/28 04:03:54;;;;;;;17.02;8.58;;;;;;;3.07;65.79;98553.72;1689530;85;21158;-64
2021/03/28 04:10:10;;;;;;;16.35;8.68;;;;;;;2.98;66.69;98549.06;1606074;88;21184;-63
2021/03/28 04:13:13;;;;;;;20.85;10.80;;;;;;;2.95;66.08;98546.66;1606088;88;21196;-65
2021/03/28 04:16:16;;;;;;;18.73;9.40;;;;;;;2.91;66.90;98546.45;1549699;92;21673;-64
2021/03/28 04:19:10;;;;;;;16.07;9.30;;;;;;;2.87;66.94;98543.67;1605437;88;21232;-64
2021/03/28 04:25:45;;;;;;;21.80;9.70;;;;;;;2.81;67.37;98539.68;1688052;85;21604;-64
2021/03/28 04:28:57;;;;;;;19.52;9.43;;;;;;;2.80;68.48;98544.91;1687787;85;21134;-64
2021/03/28 04:31:59;;;;;;;13.58;8.03;;;;;;;2.78;68.22;98549.28;1687606;85;21152;-64
2021/03/28 04:35:02;;;;;;;16.93;7.83;;;;;;;2.77;67.54;98546.33;1687589;84;21298;-64
2021/03/28 04:37:41;;;;;;;14.60;8.50;;;;;;;2.78;68.03;98542.87;1687607;84;21263;-64
2021/03/28 04:40:20;;;;;;;15.53;8.48;;;;;;;2.77;68.85;98537.35;1687474;84;21326;-65
2021/03/28 04:43:27;;;;;;;16.50;8.63;;;;;;;2.78;68.20;98537.28;1686199;84;21160;-65
2021/03/28 04:49:14;;;;;;;24.40;8.90;;;;;;;2.90;69.34;98535.81;1671649;85;21188;-65
2021/03/28 04:52:23;;;;;;;19.40;8.30;;;;;;;3.02;67.92;98549.72;1688705;84;21580;-65
2021/03/28 04:58:40;;;;;;;14.75;8.33;;;;;;;3.19;67.92;98545.81;1639483;85;21572;-64
2021/03/28 05:01:51;;;;;;;15.95;8.73;;;;;;;3.40;67.94;98542.52;1639381;87;21183;-64
2021/03/28 05:05:18;;;;;;;15.38;7.90;;;;;;;3.54;67.05;98542.12;1639631;86;21218;-64
2021/03/28 05:08:22;;;;;;;15.53;7.87;;;;;;;3.70;66.64;98542.92;1597634;89;21185;-63
2021/03/28 05:11:47;;;;;;;20.45;8.80;;;;;;;3.87;66.67;98539.87;1598218;89;21616;-64
2021/03/28 05:15:11;;;;;;;18.62;8.95;;;;;;;3.93;67.00;98545.95;1598364;89;21191;-64
2021/03/28 05:18:18;;;;;;;16.45;7.83;;;;;;;4.05;66.04;98536.23;1598542;89;21168;-65
2021/03/28 05:21:15;;;;;;;17.30;9.48;;;;;;;4.09;66.54;98548.00;1598392;89;21228;-65
2021/03/28 05:24:23;;;;;;;15.72;7.42;;;;;;;4.03;66.84;98541.94;1598542;89;21196;-65
2021/03/28 05:27:42;;;;;;;15.28;8.15;;;;;;;4.17;66.03;98547.93;1598373;89;21275;-65
2021/03/28 05:30:36;;;;;;;16.95;8.78;;;;;;;4.32;64.86;98549.27;1575430;90;21219;-65
2021/03/28 05:33:43;;;;;;;17.05;8.20;;;;;;;4.46;64.11;98560.38;1611521;89;21192;-65
2021/03/28 05:37:10;;;;;;;20.05;9.53;;;;;;;4.55;63.85;98552.10;1611241;88;21195;-65
2021/03/28 05:40:16;;;;;;;14.00;7.00;;;;;;;4.66;63.73;98560.49;1576252;89;21173;-65
2021/03/28 05:43:42;;;;;;;10.80;5.47;;;;;;;4.75;62.15;98586.48;1576018;89;21177;-66
2021/03/28 05:46:24;;;;;;;13.70;6.70;;;;;;;4.84;59.25;98597.15;1606614;89;21623;-65
2021/03/28 05:49:30;;;;;;;10.90;7.60;;;;;;;4.77;63.02;98614.70;1606696;89;21235;-65
2021/03/28 05:52:25;;;;;;;18.30;8.80;;;;;;;4.71;63.83;98626.17;1632855;86;21227;-66
2021/03/28 05:55:23;;;;;;;12.65;6.80;;;;;;;4.58;66.51;98639.41;1633008;88;21220;-65
2021/03/28 05:58:17;;;;;;;17.40;7.92;;;;;;;4.60;65.43;98650.42;1605944;89;21229;-64
2021/03/28 06:01:29;;;;;;;12.63;6.50;;;;;;;4.60;65.76;98647.02;1696004;84;21163;-66
2021/03/28 06:04:51;;;;;;;13.72;6.95;;;;;;;4.66;65.74;98653.11;1650846;87;21185;-67
2021/03/28 06:07:46;;;;;;;12.65;6.30;;;;;;;4.70;65.99;98657.98;1650868;87;21579;-67
2021/03/28 06:10:54;;;;;;;12.53;5.60;;;;;;;4.81;65.68;98668.10;1650856;87;21168;-65
2021/03/28 06:14:19;;;;;;;13.00;7.00;;;;;;;4.92;65.68;98678.13;1650770;87;21624;-64
2021/03/28 06:17:08;;;;;;;6.97;4.28;;;;;;;5.09;65.72;98681.84;1650857;87;21164;-65
2021/03/28 06:20:10;;;;;;;7.33;3.55;;;;;;;5.30;65.16;98699.48;1649768;87;21152;-63
2021/03/28 06:23:22;;;;;;;5.03;2.80;;;;;;;5.53;63.94;98701.03;1650794;87;21204;-63
2021/03/28 06:29:36;;;;;;;8.78;4.22;;;;;;;6.08;63.35;98722.14;1687260;84;21159;-65
2021/03/28 06:33:00;;;;;;;5.35;3.02;;;;;;;6.51;61.22;98730.56;1849246;76;22888;-69
2021/03/28 06:36:13;;;;;;;4.12;2.22;;;;;;;6.83;61.37;98737.05;1824628;77;22818;-65
2021/03/28 06:38:59;;;;;;;5.92;3.17;;;;;;;7.02;61.18;98742.66;1827067;78;21349;-64
2021/03/28 06:41:47;;;;;;;9.75;3.10;;;;;;;7.29;60.17;98741.28;1827675;78;21587;-64
2021/03/28 06:45:06;;;;;;;5.47;3.10;;;;;;;7.51;59.24;98750.98;1827753;78;21643;-64
2021/03/28 06:48:00;;;;;;;5.05;2.65;;;;;;;7.72;58.77;98763.74;1676105;86;21142;-65
2021/03/28 06:54:24;;;;;;;3.92;2.08;;;;;;;8.20;59.33;98767.73;1642445;86;21189;-66
2021/03/28 06:57:39;;;;;;;6.17;2.98;;;;;;;8.35;58.94;98750.69;1706628;84;21223;-67
2021/03/28 07:00:30;;;;;;;5.28;3.40;;;;;;;8.36;59.28;98773.52;1663181;86;21185;-65
2021/03/28 07:06:56;;;;;;;5.17;2.80;;;;;;;8.21;60.11;98793.98;1760801;81;21152;-68
2021/03/28 07:09:50;;;;;;;5.20;2.72;;;;;;;8.09;60.55;98799.05;1774151;80;21136;-68
2021/03/28 07:12:46;;;;;;;7.33;2.33;;;;;;;8.02;61.39;98803.00;1774113;81;21141;-67
2021/03/28 07:15:28;;;;;;;4.40;2.37;;;;;;;7.97;60.87;98806.39;1774515;81;22148;-67
2021/03/28 07:18:31;;;;;;;5.03;2.35;;;;;;;7.94;61.87;98816.92;1774128;81;21156;-68
2021/03/28 07:21:28;;;;;;;3.75;2.65;;;;;;;7.93;62.26;98828.69;1708104;83;21566;-69
2021/03/28 07:24:26;;;;;;;3.50;1.85;;;;;;;7.95;61.90;98829.39;1705970;83;21177;-69
2021/03/28 07:27:34;;;;;;;2.83;2.02;;;;;;;8.02;62.52;98837.09;1708190;83;21169;-66
2021/03/28 07:30:48;;;;;;;3.47;1.50;;;;;;;8.11;61.18;98845.52;1705536;83;21217;-69
2021/03/28 07:33:58;;;;;;;1.85;1.27;;;;;;;8.20;62.22;98841.02;1708002;83;21175;-66
2021/03/28 07:37:12;;;;;;;2.70;1.27;;;;;;;8.24;61.39;98848.09;1678304;85;21193;-66
2021/03/28 07:40:12;;;;;;;2.77;1.50;;;;;;;8.21;61.74;98851.70;1678060;85;21163;-66
2021/03/28 07:43:30;;;;;;;3.87;1.47;;;;;;;8.22;61.40;98848.65;1764078;81;21277;-66
2021/03/28 07:46:10;;;;;;;;;;;;;;;8.23;62.21;98846.43;1766363;80;21147;-66
2021/03/28 07:49:34;;;;;;;5.22;1.62;;;;;;;8.19;61.60;98860.05;1736349;81;20399;-66
2021/03/28 07:52:34;;;;;;;3.52;1.47;;;;;;;8.15;61.29;98862.48;1763575;81;21599;-66
2021/03/28 07:55:24;;;;;;;2.55;1.45;;;;;;;8.07;61.85;98868.65;1763618;80;21180;-66
2021/03/28 07:58:15;;;;;;;2.77;1.50;;;;;;;8.01;61.09;98866.03;1763581;81;21167;-66
2021/03/28 08:01:38;;;;;;;1.95;1.42;;;;;;;7.98;62.46;98860.22;1763604;81;21593;-65
2021/03/28 08:04:32;;;;;;;1.90;1.20;;;;;;;7.94;62.33;98862.19;1763702;81;21151;-66
2021/03/28 08:07:49;;;;;;;1.70;0.95;;;;;;;7.98;61.23;98875.73;1763840;81;21160;-66
2021/03/28 08:13:48;;;;;;;1.62;1.07;;;;;;;8.12;61.20;98874.34;1689796;84;21178;-64
2021/03/28 08:16:41;;;;;;;1.40;1.30;;;;;;;8.30;61.68;98876.98;1823842;77;22505;-65
2021/03/28 08:19:48;;;;;;;1.72;0.85;;;;;;;8.32;60.82;98873.84;1827513;78;21108;-66
2021/03/28 08:22:48;;;;;;;1.45;1.00;;;;;;;8.42;61.44;98876.59;1676649;85;21194;-66
2021/03/28 08:25:55;;;;;;;1.85;1.00;;;;;;;8.49;61.84;98877.81;1676274;85;21199;-68
2021/03/28 08:35:46;;;;;;;2.35;1.22;;;;;;;8.99;60.06;98884.58;1822486;77;23235;-70
2021/03/28 08:38:38;;;;;;;1.57;0.88;;;;;;;9.05;59.58;98882.40;1823153;78;21338;-68
2021/03/28 08:41:50;;;;;;;1.75;0.90;;;;;;;9.18;59.51;98889.29;1826972;78;21666;-68
2021/03/28 08:44:59;;;;;;;0.95;0.85;;;;;;;9.30;59.51;98892.28;1823259;79;21269;-69
2021/03/28 08:47:58;;;;;;;1.45;1.07;;;;;;;9.37;60.04;98887.00;1827172;78;21104;-68
2021/03/28 08:51:01;;;;;;;1.55;1.00;;;;;;;9.45;60.13;98890.66;1823522;79;21277;-68
2021/03/28 08:53:58;;;;;;;1.25;1.05;;;;;;;9.88;58.35;98883.09;1821569;79;21147;-67
2021/03/28 08:56:52;;;;;;;2.58;0.88;;;;;;;10.22;56.82;98897.45;1786241;79;21187;-67
2021/03/28 08:59:43;;;;;;;2.55;1.42;;;;;;;10.51;56.08;98899.08;1827115;78;21564;-66
2021/03/28 09:03:10;;;;;;;2.58;1.00;;;;;;;10.70;55.41;98896.22;1823563;78;21635;-69
2021/03/28 09:06:03;;;;;;;2.55;0.93;;;;;;;10.98;54.20;98910.92;1779975;79;22691;-69
2021/03/28 09:09:02;;;;;;;1.72;0.93;;;;;;;10.73;53.41;98910.29;1719539;82;21187;-69
2021/03/28 09:12:03;;;;;;;0.53;0.50;;;;;;;10.89;53.79;98904.21;1742328;82;21538;-68
2021/03/28 09:15:11;;;;;;;1.25;0.57;;;;;;;10.93;52.53;98900.42;1741222;80;21175;-68
2021/03/28 09:18:22;;;;;;;1.27;0.57;;;;;;;10.89;52.27;98896.41;1686713;85;21156;-69
2021/03/28 09:21:23;;;;;;;1.80;0.90;;;;;;;11.04;52.33;98898.76;1684566;84;21156;-69
2021/03/28 09:24:29;;;;;;;0.70;0.57;;;;;;;11.16;51.96;98900.38;1686584;85;21164;-68
2021/03/28 09:27:26;;;;;;;2.05;0.95;;;;;;;11.26;51.20;98902.10;1715317;83;21151;-69
2021/03/28 09:33:43;;;;;;;2.37;0.98;;;;;;;12.15;49.77;98910.75;1682296;85;21187;-70
2021/03/28 09:36:28;;;;;;;1.15;0.53;;;;;;;12.64;48.93;98895.67;1682901;85;21174;-69
2021/03/28 09:39:14;;;;;;;1.15;0.80;;;;;;;13.20;48.58;98896.39;1682860;85;21251;-69
2021/03/28 09:41:56;;;;;;;1.12;0.70;;;;;;;13.64;47.76;98890.63;1682730;85;21171;-69
2021/03/28 09:44:54;;;;;;;1.20;0.70;;;;;;;14.10;43.64;98884.61;1682365;85;21155;-69
2021/03/28 09:47:39;;;;;;;1.20;0.80;;;;;;;14.49;43.10;98893.63;1685256;84;21193;-69
2021/03/28 09:50:32;;;;;;;2.67;0.78;;;;;;;14.61;42.04;98894.61;1685202;84;21181;-66
2021/03/28 09:53:26;;;;;;;0.75;0.55;;;;;;;14.75;40.20;98893.80;1685037;85;21173;-69
2021/03/28 09:59:37;;;;;;;0.50;0.50;;;;;;;14.90;39.11;98909.33;1605383;89;21191;-67
2021/03/28 10:02:38;;;;;;;1.22;0.75;;;;;;;14.86;39.01;98906.66;1605587;88;21600;-68
2021/03/28 10:05:27;;;;;;;0.98;0.85;;;;;;;15.00;40.37;98910.08;1605479;88;21239;-67
2021/03/28 10:08:21;;;;;;;2.52;0.90;;;;;;;15.14;40.39;98901.70;1605452;88;21195;-67
2021/03/28 10:11:04;;;;;;;1.37;0.40;;;;;;;14.91;38.32;98908.33;1635368;87;21306;-67
2021/03/28 10:14:00;;;;;;;0.85;0.62;;;;;;;14.38;39.33;98914.25;1635400;88;21323;-68
2021/03/28 10:16:40;;;;;;;1.22;0.50;;;;;;;13.75;38.81;98946.59;1634969;88;21198;-66
2021/03/28 10:19:40;;;;;;;0.37;0.37;;;;;;;13.35;40.64;98935.94;1634775;88;21638;-68
2021/03/28 10:25:39;;;;;;;0.82;0.50;;;;;;;12.61;40.30;98944.59;1717329;83;21171;-65
2021/03/28 10:28:22;;;;;;;0.55;0.37;;;;;;;12.27;41.63;98947.47;1718044;83;21576;-65
2021/03/28 10:31:17;;;;;;;0.95;0.50;;;;;;;11.87;42.90;98959.08;1716917;83;21175;-65
2021/03/28 10:34:12;;;;;;;0.57;0.40;;;;;;;11.74;43.87;98978.44;1618805;89;21574;-65
2021/03/28 10:37:15;;;;;;;2.00;0.50;;;;;;;11.67;43.83;98970.76;1850236;77;22754;-66
2021/03/28 10:40:21;;;;;;;0.57;0.28;;;;;;;11.46;43.72;98969.41;1827570;77;21153;-66
2021/03/28 10:43:12;;;;;;;1.52;0.42;;;;;;;11.34;43.42;98971.22;1827704;77;21669;-67
2021/03/28 10:46:34;;;;;;;0.45;0.40;;;;;;;11.17;43.43;98973.03;1827646;77;21160;-68
2021/03/28 10:49:29;;;;;;;1.02;0.55;;;;;;;11.07;43.55;98979.91;1827939;77;21275;-65
2021/03/28 10:52:31;;;;;;;4.22;0.50;;;;;;;10.95;44.25;98991.27;1760776;78;21178;-65
2021/03/28 10:55:30;;;;;;;0.60;0.30;;;;;;;10.89;44.30;98989.97;1827619;77;21707;-67
2021/03/28 10:58:38;;;;;;;0.88;0.33;;;;;;;10.90;44.24;98989.03;1827838;77;21173;-66
2021/03/28 11:01:59;;;;;;;1.35;0.30;;;;;;;11.01;43.92;98984.78;1827872;77;21573;-66
2021/03/28 11:09:01;;;;;;;1.80;0.70;;;;;;;10.90;47.36;99002.48;1764704;79;28482;-66
2021/03/28 11:12:13;;;;;;;1.25;0.50;;;;;;;10.95;45.96;99012.06;1668928;85;21174;-66
2021/03/28 11:15:07;;;;;;;1.00;0.47;;;;;;;10.85;45.80;99013.27;1680794;84;21260;-66
2021/03/28 11:17:52;;;;;;;0.50;0.40;;;;;;;10.84;46.00;99008.17;1594989;90;21251;-67
2021/03/28 11:20:44;;;;;;;1.25;0.60;;;;;;;10.85;46.00;99017.16;1569370;91;21645;-66
2021/03/28 11:23:39;;;;;;;1.32;0.47;;;;;;;10.88;46.25;99009.13;1574947;90;21185;-68
2021/03/28 11:26:52;;;;;;;0.28;0.20;;;;;;;10.94;46.19;99003.91;1612792;88;21600;-66
2021/03/28 11:29:38;;;;;;;1.85;0.75;;;;;;;10.95;46.06;99017.27;1625680;88;21209;-66
2021/03/28 11:32:33;;;;;;;0.70;0.37;;;;;;;10.93;46.17;99013.97;1624911;88;21165;-66
2021/03/28 11:35:18;;;;;;;2.50;0.75;;;;;;;10.87;46.30;99010.06;1625553;87;21138;-66
2021/03/28 11:37:58;;;;;;;0.70;0.60;;;;;;;10.80;46.54;99020.58;1625689;88;21231;-64
2021/03/28 11:40:35;;;;;;;1.00;0.65;;;;;;;10.74;46.16;99014.54;1622619;88;21185;-67
2021/03/28 11:43:12;;;;;;;0.30;0.30;;;;;;;10.68;46.39;99011.13;1625646;87;21526;-67
2021/03/28 11:46:27;;;;;;;0.60;0.40;;;;;;;10.63;46.53;99015.02;1625597;88;21620;-68
2021/03/28 11:49:01;;;;;;;0.60;0.40;;;;;;;10.57;47.03;99019.39;1665785;86;21183;-67
2021/03/28 11:51:58;;;;;;;0.33;0.30;;;;;;;10.50;47.09;99011.25;1667180;86;21170;-68
2021/03/28 11:54:28;;;;;;;0.60;0.50;;;;;;;10.51;47.50;99009.45;1678995;84;21245;-66
2021/03/28 11:57:11;;;;;;;0.85;0.50;;;;;;;10.57;46.66;99006.41;1678891;84;21219;-66
2021/03/28 12:00:14;;;;;;;0.98;0.47;;;;;;;10.66;47.18;99001.31;1678973;84;21194;-68
2021/03/28 12:02:48;;;;;;;0.75;0.40;;;;;;;10.88;47.05;98996.59;1590146;89;21192;-66
2021/03/28 12:05:58;;;;;;;0.82;0.60;;;;;;;11.28;45.21;99002.90;1609100;89;21206;-64
2021/03/28 12:08:34;;;;;;;0.62;0.50;;;;;;;11.59;42.84;98985.69;1615245;87;21330;-66
2021/03/28 12:11:48;;;;;;;0.88;0.57;;;;;;;11.97;43.73;98989.56;1615169;87;21217;-68
2021/03/28 12:14:51;;;;;;;0.60;0.60;;;;;;;12.09;43.06;98988.08;1615345;87;21597;-66
2021/03/28 12:17:23;;;;;;;0.35;0.33;;;;;;;12.09;41.80;98985.48;1606498;88;21330;-65
2021/03/28 12:20:00;;;;;;;0.78;0.40;;;;;;;12.06;42.40;99002.63;1606068;88;21201;-66
2021/03/28 12:25:45;;;;;;;0.57;0.40;;;;;;;11.81;42.90;98986.09;1678015;84;20476;-68
2021/03/28 12:28:44;;;;;;;0.95;0.55;;;;;;;12.03;42.96;98986.44;1697710;83;21180;-67
2021/03/28 12:31:34;;;;;;;;;;;;;;;12.14;42.60;98991.61;1705902;84;21336;-66
2021/03/28 12:34:31;;;;;;;0.50;0.50;;;;;;;12.24;42.27;98995.92;1703344;84;20425;-66
2021/03/28 12:37:14;;;;;;;0.80;0.60;;;;;;;12.37;42.26;98995.22;1703287;83;21194;-66
2021/03/28 12:39:48;;;;;;;0.40;0.40;;;;;;;12.65;41.82;98985.90;1703538;84;21218;-66
2021/03/28 12:42:37;;;;;;;0.57;0.33;;;;;;;12.97;41.52;98971.41;1703413;84;21528;-66
2021/03/28 12:45:16;;;;;;;0.72;0.70;;;;;;;13.49;41.03;98978.61;1703371;84;21329;-66
2021/03/28 12:47:57;;;;;;;1.00;0.50;;;;;;;13.52;40.06;98979.63;1703181;84;21154;-66
2021/03/28 12:50:44;;;;;;;1.25;0.50;;;;;;;13.44;39.61;98976.88;1703179;84;21219;-67
2021/03/28 12:53:22;;;;;;;0.75;0.60;;;;;;;13.52;40.29;98975.72;1703501;84;21163;-66
2021/03/28 12:56:22;;;;;;;0.80;0.60;;;;;;;13.58;40.45;98975.98;1703430;84;21163;-64
2021/03/28 12:58:53;;;;;;;0.47;0.40;;;;;;;13.31;39.35;98981.04;1721931;83;21129;-66
2021/03/28 13:01:33;;;;;;;1.12;0.70;;;;;;;12.95;40.49;98981.63;1721911;82;21114;-66
2021/03/28 13:04:23;;;;;;;0.47;0.40;;;;;;;12.72;40.75;98988.32;1722037;83;21177;-67
2021/03/28 13:06:52;;;;;;;0.40;0.40;;;;;;;12.57;41.14;98993.54;1722049;83;21271;-66
2021/03/28 13:09:36;;;;;;;2.33;0.80;;;;;;;12.67;41.11;98975.36;1721986;83;21165;-66
2021/03/28 13:12:17;;;;;;;0.60;0.50;;;;;;;13.49;41.00;98967.69;1721926;83;21138;-67
2021/03/28 13:14:49;;;;;;;2.33;0.50;;;;;;;14.63;38.88;98952.78;1721776;83;21118;-66
2021/03/28 13:17:50;;;;;;;1.15;0.75;;;;;;;15.82;37.61;98949.15;1722014;83;21589;-66
2021/03/28 13:20:29;;;;;;;0.80;0.50;;;;;;;16.82;35.94;98944.20;1671240;85;21182;-66
2021/03/28 13:23:42;;;;;;;1.37;0.68;;;;;;;17.39;33.91;98938.11;1682911;84;21610;-66
2021/03/28 13:29:37;;;;;;;0.70;0.62;;;;;;;16.08;35.16;98953.92;1666742;86;21214;-66
2021/03/28 13:32:22;;;;;;;1.35;0.68;;;;;;;14.58;34.95;98957.64;1645978;86;21675;-66
2021/03/28 13:35:01;;;;;;;2.42;0.62;;;;;;;14.21;35.96;98958.05;1614128;89;21190;-65
2021/03/28 13:37:39;;;;;;;0.68;0.40;;;;;;;13.57;35.73;98954.78;1646086;86;21226;-66
2021/03/28 13:40:21;;;;;;;1.00;0.50;;;;;;;13.60;37.17;98951.06;1642952;86;21195;-65
2021/03/28 13:43:01;;;;;;;0.30;0.30;;;;;;;13.42;36.83;98948.33;1614103;88;21218;-65
2021/03/28 13:45:39;;;;;;;0.80;0.57;;;;;;;13.28;37.68;98953.92;1645821;86;21238;-67
2021/03/28 13:48:12;;;;;;;1.17;0.60;;;;;;;13.56;36.52;98950.52;1614204;88;21186;-65
2021/03/28 13:54:05;;;;;;;0.78;0.47;;;;;;;13.25;36.78;98956.34;1633666;86;21231;-65
2021/03/28 13:56:49;;;;;;;0.80;0.50;;;;;;;12.98;37.20;98952.20;1601387;88;21226;-65
2021/03/28 13:59:29;;;;;;;0.53;0.40;;;;;;;12.87;36.98;98958.84;1626327;88;21258;-65
2021/03/28 14:02:21;;;;;;;0.78;0.50;;;;;;;12.83;37.08;98947.84;1626224;87;21219;-66
2021/03/28 14:05:03;;;;;;;0.70;0.50;;;;;;;12.82;37.32;98949.27;1626251;88;21191;-65
2021/03/28 14:13:31;;;;;;;0.85;0.50;;;;;;;12.78;37.18;98956.53;1707473;82;21194;-69
2021/03/28 14:16:10;;;;;;;0.45;0.35;;;;;;;12.79;37.03;98959.97;1664837;85;21173;-66
2021/03/28 14:18:46;;;;;;;0.70;0.40;;;;;;;12.72;36.39;98964.87;1712936;82;21230;-67
2021/03/28 14:21:48;;;;;;;0.93;0.50;;;;;;;13.12;36.77;98966.19;1713476;82;21147;-67
2021/03/28 14:24:21;;;;;;;0.53;0.42;;;;;;;13.35;35.26;98964.16;1673245;86;21201;-66
2021/03/28 14:27:01;;;;;;;0.93;0.45;;;;;;;13.55;35.18;98959.78;1673378;85;21210;-66
2021/03/28 14:29:46;;;;;;;0.50;0.50;;;;;;;13.84;35.26;98965.00;1670714;86;21178;-68
2021/03/28 14:32:26;;;;;;;0.65;0.47;;;;;;;13.89;34.33;98964.91;1673383;85;21681;-65
2021/03/28 14:35:32;;;;;;;0.70;0.57;;;;;;;14.11;34.73;98961.19;1672797;86;21169;-66
2021/03/28 14:38:37;;;;;;;0.53;0.47;;;;;;;14.62;33.58;98959.00;1695718;85;21214;-66
2021/03/28 14:41:25;;;;;;;0.70;0.40;;;;;;;15.23;33.09;98957.56;1711893;84;21342;-66
2021/03/28 14:44:32;;;;;;;0.47;0.47;;;;;;;16.34;32.78;98955.25;1711990;84;21604;-65
2021/03/28 14:47:35;;;;;;;0.40;0.40;;;;;;;16.48;31.93;98960.73;1681732;84;21179;-65
2021/03/28 14:50:47;;;;;;;0.30;0.30;;;;;;;16.10;31.23;98958.05;1680993;84;22027;-66
2021/03/28 14:53:45;;;;;;;1.17;0.70;;;;;;;15.68;31.39;98965.72;1683436;84;21174;-66
2021/03/28 14:56:38;;;;;;;1.42;0.78;;;;;;;16.23;30.01;98956.31;1685280;83;21639;-64
2021/03/28 14:59:28;;;;;;;1.17;0.60;;;;;;;16.98;30.10;98954.75;1658327;84;21183;-64
2021/03/28 15:05:50;;;;;;;0.60;0.45;;;;;;;17.18;28.43;98956.13;1670254;85;21183;-67
2021/03/28 15:09:00;;;;;;;0.50;0.50;;;;;;;16.73;28.52;98948.58;1689966;84;21202;-65
2021/03/28 15:11:53;;;;;;;1.07;0.55;;;;;;;16.65;28.82;98960.38;1677650;84;21178;-65
2021/03/28 15:15:18;;;;;;;12.98;5.55;;;;;;;16.41;27.54;98950.55;1591488;89;21626;-67
2021/03/28 15:17:51;;;;;;;13.98;8.05;;;;;;;15.67;28.04;98960.66;1669956;85;21218;-70
2021/03/28 15:20:40;;;;;;;30.72;14.03;;;;;;;15.65;28.61;98959.97;1679056;84;21634;-68
2021/03/28 15:23:32;;;;;;;29.40;13.45;;;;;;;16.10;28.64;98962.47;1691546;84;21382;-73
2021/03/28 15:29:36;;;;;;;1.02;0.78;;;;;;;17.03;30.07;98969.54;1709661;82;21304;-73
2021/03/28 15:32:33;;;;;;;0.33;0.33;;;;;;;17.26;29.73;98975.84;1709473;83;21251;-74